createdAt,value
2022-12-15T00:01:42.959Z,19.91
2022-12-15T00:04:28.201Z,19.91
2022-12-15T00:07:13.349Z,19.93
2022-12-15T00:09:58.395Z,19.91
2022-12-15T00:12:43.293Z,19.89
2022-12-15T00:15:28.184Z,19.87
2022-12-15T00:18:13.283Z,19.86
2022-12-15T00:20:58.490Z,19.85
2022-12-15T00:23:43.349Z,19.85
2022-12-15T00:26:28.234Z,19.84
2022-12-15T00:29:13.536Z,19.85
2022-12-15T00:31:58.873Z,19.86
2022-12-15T00:34:44.161Z,19.87
2022-12-15T00:37:29.062Z,19.87
2022-12-15T00:39:58.782Z,19.87
2022-12-15T00:42:25.949Z,19.87
2022-12-15T00:44:52.264Z,19.87
2022-12-15T00:47:18.617Z,19.87
2022-12-15T00:50:03.774Z,19.87
2022-12-15T00:52:48.743Z,19.84
2022-12-15T00:55:33.576Z,19.83
2022-12-15T00:58:18.518Z,19.80
2022-12-15T01:01:03.700Z,19.79
2022-12-15T01:03:48.623Z,19.79
2022-12-15T01:06:35.240Z,19.79
2022-12-15T01:09:20.323Z,19.79
2022-12-15T01:12:05.266Z,19.80
2022-12-15T01:14:50.219Z,19.80
2022-12-15T01:17:38.085Z,19.82
2022-12-15T01:20:20.050Z,19.82
2022-12-15T01:22:49.932Z,19.82
2022-12-15T01:25:17.248Z,19.82
2022-12-15T01:27:43.656Z,19.82
2022-12-15T01:30:10.737Z,19.81
2022-12-15T01:32:40.350Z,19.79
2022-12-15T01:35:09.844Z,19.78
2022-12-15T01:37:36.218Z,19.76
2022-12-15T01:40:21.652Z,19.75
2022-12-15T01:42:47.978Z,19.75
2022-12-15T01:45:23.536Z,19.74
2022-12-15T01:47:52.777Z,19.74
2022-12-15T01:50:19.104Z,19.74
2022-12-15T01:52:45.441Z,19.76
2022-12-15T01:55:16.361Z,19.76
2022-12-15T01:57:42.685Z,19.76
2022-12-15T02:00:09.064Z,19.77
2022-12-15T02:02:39.967Z,19.77
2022-12-15T02:05:06.902Z,19.77
2022-12-15T02:07:33.217Z,19.77
2022-12-15T02:10:00.240Z,19.76
2022-12-15T02:12:44.714Z,19.75
2022-12-15T02:15:11.009Z,19.74
2022-12-15T02:17:40.904Z,19.72
2022-12-15T02:20:18.824Z,19.72
2022-12-15T02:23:03.844Z,19.71
2022-12-15T02:33:55.114Z,19.71
2022-12-15T02:36:34.869Z,19.72
2022-12-15T02:39:01.331Z,19.73
2022-12-15T02:41:37.654Z,19.73
2022-12-15T02:44:07.810Z,19.72
2022-12-15T02:46:36.829Z,19.73
2022-12-15T02:49:06.946Z,19.73
2022-12-15T02:51:43.618Z,19.71
2022-12-15T02:54:20.614Z,19.72
2022-12-15T02:56:51.841Z,19.70
2022-12-15T02:59:37.830Z,19.69
2022-12-15T03:02:05.967Z,19.67
2022-12-15T03:04:33.888Z,19.65
2022-12-15T03:07:01.556Z,19.66
2022-12-15T03:09:27.977Z,19.66
2022-12-15T03:11:54.306Z,19.66
2022-12-15T03:14:21.036Z,19.69
2022-12-15T03:16:47.415Z,19.67
2022-12-15T03:19:13.776Z,19.67
2022-12-15T03:21:40.109Z,19.69
2022-12-15T03:24:06.512Z,19.69
2022-12-15T03:26:32.853Z,19.70
2022-12-15T03:28:59.156Z,19.69
2022-12-15T03:31:25.512Z,19.69
2022-12-15T03:33:51.840Z,19.67
2022-12-15T03:36:18.165Z,19.67
2022-12-15T03:38:44.526Z,19.66
2022-12-15T03:41:10.841Z,19.65
2022-12-15T03:43:37.849Z,19.62
2022-12-15T03:46:04.257Z,19.64
2022-12-15T03:48:30.601Z,19.63
2022-12-15T03:50:56.968Z,19.64
2022-12-15T03:53:23.287Z,19.64
2022-12-15T03:55:49.589Z,19.65
2022-12-15T03:58:15.907Z,19.66
2022-12-15T04:00:42.222Z,19.69
2022-12-15T04:03:09.557Z,19.70
2022-12-15T04:05:36.002Z,19.70
2022-12-15T04:08:02.354Z,19.70
2022-12-15T04:10:34.018Z,19.71
2022-12-15T04:13:01.614Z,19.70
2022-12-15T04:15:27.937Z,19.70
2022-12-15T04:17:54.298Z,19.70
2022-12-15T04:20:20.648Z,19.70
2022-12-15T04:22:47.446Z,19.67
2022-12-15T04:25:33.185Z,19.67
2022-12-15T04:28:18.268Z,19.65
2022-12-15T04:31:22.321Z,19.65
2022-12-15T04:34:08.319Z,19.63
2022-12-15T04:36:53.110Z,19.64
2022-12-15T04:39:37.918Z,19.64
2022-12-15T04:42:22.716Z,19.64
2022-12-15T04:45:07.867Z,19.65
2022-12-15T04:47:52.848Z,19.64
2022-12-15T04:50:37.560Z,19.66
2022-12-15T04:53:25.906Z,19.67
2022-12-15T04:56:16.482Z,19.67
2022-12-15T04:59:03.161Z,19.67
2022-12-15T05:01:48.174Z,19.66
2022-12-15T05:04:33.426Z,19.67
2022-12-15T05:07:18.462Z,19.66
2022-12-15T05:10:04.321Z,19.67
2022-12-15T05:12:51.273Z,19.66
2022-12-15T05:15:36.170Z,19.67
2022-12-15T05:18:21.545Z,19.67
2022-12-15T05:21:06.536Z,19.69
2022-12-15T05:23:51.459Z,19.67
2022-12-15T05:26:36.228Z,19.69
2022-12-15T05:29:21.189Z,19.69
2022-12-15T05:31:55.086Z,19.66
2022-12-15T05:34:26.117Z,19.65
2022-12-15T05:36:52.880Z,19.64
2022-12-15T05:39:19.417Z,19.64
2022-12-15T05:41:45.774Z,19.63
2022-12-15T05:44:12.110Z,19.63
2022-12-15T05:46:38.512Z,19.63
2022-12-15T05:49:08.229Z,19.64
2022-12-15T05:51:34.569Z,19.64
2022-12-15T05:54:00.889Z,19.64
2022-12-15T05:56:27.371Z,19.65
2022-12-15T05:58:53.695Z,19.65
2022-12-15T06:01:20.060Z,19.62
2022-12-15T06:03:46.476Z,19.64
2022-12-15T06:06:12.788Z,19.67
2022-12-15T06:08:39.488Z,19.66
2022-12-15T06:11:05.811Z,19.40
2022-12-15T06:13:32.654Z,19.47
2022-12-15T06:16:05.548Z,19.63
2022-12-15T06:18:32.646Z,19.69
2022-12-15T06:20:59.460Z,19.76
2022-12-15T06:23:27.115Z,19.84
2022-12-15T06:25:59.456Z,19.89
2022-12-15T06:28:25.931Z,19.91
2022-12-15T06:30:53.096Z,19.92
2022-12-15T06:33:19.766Z,19.94
2022-12-15T06:35:52.148Z,19.96
2022-12-15T06:38:18.478Z,20.00
2022-12-15T06:40:44.817Z,19.97
2022-12-15T06:43:11.145Z,20.07
2022-12-15T06:45:37.471Z,20.11
2022-12-15T06:48:03.838Z,20.13
2022-12-15T06:50:30.178Z,19.99
2022-12-15T06:52:57.103Z,19.99
2022-12-15T06:55:23.428Z,19.97
2022-12-15T06:57:49.756Z,19.97
2022-12-15T07:00:16.179Z,19.97
2022-12-15T07:02:50.314Z,19.98
2022-12-15T07:05:16.856Z,20.08
2022-12-15T07:07:43.205Z,19.98
2022-12-15T07:10:10.866Z,19.95
2022-12-15T07:12:43.015Z,19.95
2022-12-15T07:15:11.196Z,19.97
2022-12-15T07:17:37.524Z,19.98
2022-12-15T07:20:05.093Z,19.99
2022-12-15T07:22:31.404Z,19.95
2022-12-15T07:24:57.990Z,20.03
2022-12-15T07:27:24.305Z,20.25
2022-12-15T07:29:50.634Z,20.36
2022-12-15T07:32:16.945Z,20.43
2022-12-15T07:34:43.264Z,20.48
2022-12-15T07:37:09.696Z,20.49
2022-12-15T07:39:36.282Z,20.54
2022-12-15T07:42:02.599Z,20.61
2022-12-15T07:44:31.952Z,20.74
2022-12-15T07:47:01.099Z,20.76
2022-12-15T07:49:27.432Z,20.71
2022-12-15T07:51:53.752Z,20.72
2022-12-15T07:54:20.528Z,20.77
2022-12-15T07:56:50.306Z,20.76
2022-12-15T07:59:17.137Z,20.78
2022-12-15T08:01:43.671Z,20.85
2022-12-15T08:04:10.381Z,20.90
2022-12-15T08:06:36.705Z,20.96
2022-12-15T08:09:03.041Z,21.00
2022-12-15T08:11:33.804Z,21.00
2022-12-15T08:14:03.132Z,21.00
2022-12-15T08:16:30.274Z,20.99
2022-12-15T08:18:59.536Z,20.98
2022-12-15T08:21:28.542Z,21.04
2022-12-15T08:23:56.939Z,21.10
2022-12-15T08:26:29.847Z,21.07
2022-12-15T08:31:52.690Z,21.01
2022-12-15T08:34:19.102Z,21.00
2022-12-15T08:36:45.415Z,20.87
2022-12-15T08:39:11.750Z,20.81
2022-12-15T08:41:38.069Z,20.91
2022-12-15T08:44:04.395Z,21.01
2022-12-15T08:46:31.619Z,21.10
2022-12-15T08:48:58.027Z,21.07
2022-12-15T08:51:24.665Z,21.04
2022-12-15T08:53:51.144Z,20.95
2022-12-15T08:56:18.540Z,20.90
2022-12-15T08:58:45.261Z,20.89
2022-12-15T09:01:14.868Z,20.86
2022-12-15T09:03:45.270Z,20.86
2022-12-15T09:06:15.481Z,20.85
2022-12-15T09:08:41.865Z,20.86
2022-12-15T09:11:08.196Z,20.86
2022-12-15T09:13:35.237Z,20.85
2022-12-15T09:16:11.098Z,20.86
2022-12-15T09:18:37.798Z,20.86
2022-12-15T09:21:07.364Z,20.86
2022-12-15T09:23:34.981Z,20.85
2022-12-15T09:26:02.084Z,20.86
2022-12-15T09:28:28.882Z,20.85
2022-12-15T09:30:55.483Z,20.84
2022-12-15T09:33:21.888Z,20.84
2022-12-15T09:35:51.102Z,20.85
2022-12-15T09:38:17.417Z,20.85
2022-12-15T09:40:43.757Z,20.90
2022-12-15T09:43:33.353Z,20.89
2022-12-15T09:45:58.244Z,20.96
2022-12-15T09:48:25.013Z,20.89
2022-12-15T09:50:52.457Z,20.84
2022-12-15T09:53:53.054Z,20.87
2022-12-15T09:56:08.119Z,20.87
2022-12-15T09:58:40.630Z,20.89
2022-12-15T10:01:25.707Z,20.89
2022-12-15T10:04:07.810Z,20.89
2022-12-15T10:06:36.924Z,20.89
2022-12-15T10:09:15.989Z,20.90
2022-12-15T10:11:50.627Z,20.89
2022-12-15T10:14:37.653Z,20.89
2022-12-15T10:17:12.680Z,20.93
2022-12-15T10:19:42.356Z,20.87
2022-12-15T10:22:33.866Z,20.86
2022-12-15T10:25:29.809Z,20.88
2022-12-15T10:28:15.588Z,20.90
2022-12-15T10:31:02.383Z,20.90
2022-12-15T10:33:32.613Z,20.93
2022-12-15T10:36:02.429Z,20.92
2022-12-15T10:38:37.585Z,20.93
2022-12-15T10:41:05.544Z,20.95
2022-12-15T10:43:36.989Z,20.99
2022-12-15T10:46:04.961Z,21.06
2022-12-15T10:48:31.398Z,21.08
2022-12-15T10:51:08.366Z,21.11
2022-12-15T10:53:39.463Z,20.92
2022-12-15T10:56:06.061Z,20.91
2022-12-15T10:58:32.474Z,20.91
2022-12-15T11:01:08.881Z,20.79
2022-12-15T11:03:41.461Z,20.67
2022-12-15T11:06:14.798Z,20.66
2022-12-15T11:08:41.622Z,20.75
2022-12-15T11:11:45.226Z,20.70
2022-12-15T11:14:16.530Z,20.69
2022-12-15T11:16:47.702Z,20.61
2022-12-15T11:19:16.641Z,20.59
2022-12-15T11:21:44.694Z,20.61
2022-12-15T11:24:15.746Z,20.56
2022-12-15T11:26:48.919Z,20.68
2022-12-15T11:29:27.092Z,20.91
2022-12-15T11:31:54.122Z,20.98
2022-12-15T11:34:24.836Z,21.05
2022-12-15T11:36:54.449Z,21.09
2022-12-15T11:39:25.240Z,21.10
2022-12-15T11:41:57.731Z,21.08
2022-12-15T11:44:24.790Z,20.89
2022-12-15T11:46:59.898Z,20.22
2022-12-15T11:49:26.238Z,20.39
2022-12-15T11:51:53.959Z,20.73
2022-12-15T11:54:28.313Z,20.95
2022-12-15T11:57:04.738Z,21.08
2022-12-15T11:59:44.036Z,21.07
2022-12-15T12:02:11.628Z,20.98
2022-12-15T12:04:58.193Z,21.09
2022-12-15T12:07:27.648Z,21.18
2022-12-15T12:10:12.568Z,20.89
2022-12-15T12:12:46.753Z,20.91
2022-12-15T12:15:32.705Z,21.02
2022-12-15T12:18:04.288Z,21.06
2022-12-15T12:20:47.489Z,20.90
2022-12-15T12:23:15.911Z,20.95
2022-12-15T12:26:02.903Z,20.68
2022-12-15T12:28:33.060Z,20.60
2022-12-15T12:31:00.315Z,20.65
2022-12-15T12:33:38.137Z,20.65
2022-12-15T12:36:09.871Z,20.64
2022-12-15T12:38:46.326Z,20.62
2022-12-15T12:41:23.302Z,20.83
2022-12-15T12:43:56.340Z,20.85
2022-12-15T12:46:25.472Z,20.99
2022-12-15T12:48:56.091Z,21.06
2022-12-15T12:51:32.449Z,21.06
2022-12-15T12:53:58.983Z,21.18
2022-12-15T12:56:40.495Z,21.26
2022-12-15T12:59:25.600Z,21.33
2022-12-15T13:02:31.388Z,21.36
2022-12-15T13:05:01.442Z,21.30
2022-12-15T13:07:31.552Z,21.11
2022-12-15T13:10:18.112Z,21.15
2022-12-15T13:15:38.244Z,21.07
2022-12-15T13:18:04.528Z,20.74
2022-12-15T13:20:31.260Z,20.69
2022-12-15T13:23:16.194Z,20.77
2022-12-15T13:25:42.934Z,20.83
2022-12-15T13:28:28.291Z,20.89
2022-12-15T13:31:17.749Z,20.92
2022-12-15T13:33:53.392Z,20.93
2022-12-15T13:36:37.845Z,20.91
2022-12-15T13:39:05.244Z,20.89
2022-12-15T13:41:33.154Z,20.90
2022-12-15T13:43:59.506Z,20.86
2022-12-15T13:46:27.076Z,20.86
2022-12-15T13:48:53.925Z,20.84
2022-12-15T13:51:30.058Z,20.82
2022-12-15T13:54:10.792Z,20.82
2022-12-15T13:56:40.098Z,20.77
2022-12-15T13:59:10.711Z,20.75
2022-12-15T14:01:37.086Z,20.75
2022-12-15T14:04:04.912Z,20.74
2022-12-15T14:06:34.558Z,21.21
2022-12-15T14:09:00.988Z,21.46
2022-12-15T14:11:52.072Z,21.58
2022-12-15T14:14:18.637Z,21.66
2022-12-15T14:16:45.336Z,21.71
2022-12-15T14:19:14.247Z,21.74
2022-12-15T14:21:40.564Z,21.80
2022-12-15T14:24:38.005Z,21.80
2022-12-15T14:27:05.850Z,21.63
2022-12-15T14:29:32.182Z,12.82
2022-12-15T14:31:58.600Z,17.98
2022-12-15T14:34:36.791Z,19.85
2022-12-15T14:37:15.531Z,20.59
2022-12-15T14:39:43.144Z,20.89
2022-12-15T14:42:19.451Z,21.06
2022-12-15T14:44:49.761Z,21.16
2022-12-15T14:47:19.245Z,21.22
2022-12-15T14:49:51.602Z,21.40
2022-12-15T14:52:31.222Z,21.59
2022-12-15T14:55:01.133Z,21.66
2022-12-15T14:57:45.898Z,21.67
2022-12-15T15:00:26.103Z,21.61
2022-12-15T15:03:07.366Z,21.05
2022-12-15T15:03:17.265Z,21.59
2022-12-15T15:05:47.524Z,21.60
2022-12-15T15:08:14.512Z,21.58
2022-12-15T15:10:40.852Z,21.57
2022-12-15T15:13:14.809Z,21.57
2022-12-15T15:15:41.150Z,21.60
2022-12-15T15:18:17.717Z,21.59
2022-12-15T15:20:47.289Z,21.60
2022-12-15T15:23:15.913Z,21.61
2022-12-15T15:25:54.457Z,21.64
2022-12-15T15:28:23.086Z,21.64
2022-12-15T15:30:50.309Z,21.68
2022-12-15T15:33:17.026Z,21.71
2022-12-15T15:35:43.631Z,21.70
2022-12-15T15:38:33.699Z,21.71
2022-12-15T15:41:20.983Z,21.70
2022-12-15T15:43:47.397Z,21.75
2022-12-15T15:46:18.308Z,21.78
2022-12-15T15:48:48.134Z,21.81
2022-12-15T15:51:14.520Z,21.82
2022-12-15T15:53:40.856Z,21.84
2022-12-15T15:56:08.818Z,21.84
2022-12-15T15:58:35.717Z,21.87
2022-12-15T16:01:04.758Z,21.87
2022-12-15T16:03:35.325Z,21.91
2022-12-15T16:06:04.920Z,21.78
2022-12-15T16:08:40.811Z,21.88
2022-12-15T16:11:08.930Z,21.89
2022-12-15T16:13:35.254Z,21.91
2022-12-15T16:16:02.152Z,21.92
2022-12-15T16:18:28.741Z,21.95
2022-12-15T16:20:55.278Z,21.94
2022-12-15T16:23:26.438Z,21.95
2022-12-15T16:25:53.781Z,21.96
2022-12-15T16:28:20.728Z,21.94
2022-12-15T16:30:47.209Z,22.03
2022-12-15T16:33:13.582Z,22.11
2022-12-15T16:35:40.253Z,22.07
2022-12-15T16:38:06.735Z,22.06
2022-12-15T16:40:36.460Z,22.00
2022-12-15T16:43:02.828Z,22.00
2022-12-15T16:45:29.504Z,22.02
2022-12-15T16:47:55.880Z,22.02
2022-12-15T16:50:23.934Z,22.04
2022-12-15T16:52:50.485Z,22.11
2022-12-15T16:55:17.438Z,22.17
2022-12-15T16:57:46.591Z,22.18
2022-12-15T17:00:20.310Z,22.12
2022-12-15T17:02:53.040Z,22.07
2022-12-15T17:05:19.550Z,22.08
2022-12-15T17:07:46.356Z,22.04
2022-12-15T17:10:15.798Z,22.10
2022-12-15T17:12:44.957Z,22.09
2022-12-15T17:15:17.719Z,22.04
2022-12-15T17:17:44.083Z,22.08
2022-12-15T17:20:30.957Z,22.11
2022-12-15T17:23:02.190Z,22.13
2022-12-15T17:26:01.635Z,22.19
2022-12-15T17:28:20.728Z,21.48
2022-12-15T17:30:50.661Z,21.37
2022-12-15T17:33:18.081Z,21.30
2022-12-15T17:35:45.209Z,21.24
2022-12-15T17:38:14.820Z,21.17
2022-12-15T17:40:41.154Z,21.12
2022-12-15T17:43:13.896Z,21.08
2022-12-15T17:45:40.231Z,21.05
2022-12-15T17:48:06.566Z,21.01
2022-12-15T17:50:32.908Z,20.98
2022-12-15T17:52:59.224Z,20.96
2022-12-15T17:55:30.313Z,20.93
2022-12-15T17:58:01.020Z,20.93
2022-12-15T18:00:28.249Z,20.91
2022-12-15T18:02:54.878Z,20.92
2022-12-15T18:05:21.961Z,20.87
2022-12-15T18:07:49.223Z,20.82
2022-12-15T18:10:23.181Z,20.88
2022-12-15T18:12:49.521Z,20.94
2022-12-15T18:15:17.334Z,20.97
2022-12-15T18:17:43.660Z,19.04
2022-12-15T18:20:10.217Z,15.85
2022-12-15T18:22:36.623Z,18.14
2022-12-15T18:25:03.001Z,19.31
2022-12-15T18:27:29.524Z,19.92
2022-12-15T18:29:56.618Z,19.76
2022-12-15T18:32:24.028Z,19.41
2022-12-15T18:34:50.671Z,19.19
2022-12-15T18:37:17.554Z,18.95
2022-12-15T18:39:46.671Z,16.18
2022-12-15T18:42:16.885Z,17.33
2022-12-15T18:44:50.109Z,18.60
2022-12-15T18:47:17.200Z,19.24
2022-12-15T18:49:43.839Z,19.54
2022-12-15T18:52:17.663Z,19.71
2022-12-15T18:54:44.831Z,19.69
2022-12-15T18:57:27.507Z,19.79
2022-12-15T18:59:57.199Z,19.88
2022-12-15T19:02:23.762Z,19.73
2022-12-15T19:04:50.151Z,19.87
2022-12-15T19:07:16.514Z,19.93
2022-12-15T19:09:42.825Z,19.90
2022-12-15T19:12:18.634Z,19.81
2022-12-15T19:14:51.480Z,19.93
2022-12-15T19:17:37.420Z,19.96
2022-12-15T19:20:23.192Z,19.96
2022-12-15T19:22:49.553Z,19.96
2022-12-15T19:25:25.013Z,19.95
2022-12-15T19:27:54.963Z,19.95
2022-12-15T19:30:22.049Z,19.96
2022-12-15T19:32:48.409Z,19.96
2022-12-15T19:35:17.464Z,19.94
2022-12-15T19:37:44.349Z,19.96
2022-12-15T19:40:20.430Z,19.96
2022-12-15T19:42:47.068Z,19.98
2022-12-15T19:45:17.126Z,19.94
2022-12-15T19:47:43.602Z,19.97
2022-12-15T19:50:13.434Z,19.97
2022-12-15T19:52:39.841Z,19.98
2022-12-15T19:55:06.304Z,19.97
2022-12-15T19:57:32.650Z,19.97
2022-12-15T19:59:59.054Z,19.97
2022-12-15T20:02:26.491Z,19.96
2022-12-15T20:04:52.988Z,19.95
2022-12-15T20:07:31.150Z,19.95
2022-12-15T20:09:58.156Z,19.95
2022-12-15T20:12:24.518Z,19.94
2022-12-15T20:14:50.877Z,19.94
2022-12-15T20:17:17.200Z,19.93
2022-12-15T20:19:44.029Z,19.94
2022-12-15T20:22:12.197Z,19.94
2022-12-15T20:24:38.512Z,19.94
2022-12-15T20:27:13.879Z,19.94
2022-12-15T20:29:40.299Z,19.96
2022-12-15T20:32:07.713Z,19.97
2022-12-15T20:34:34.138Z,19.98
2022-12-15T20:37:00.516Z,19.97
2022-12-15T20:39:27.560Z,19.99
2022-12-15T20:41:53.897Z,20.00
2022-12-15T20:44:20.205Z,19.99
2022-12-15T20:46:46.530Z,19.97
2022-12-15T20:49:16.611Z,19.98
2022-12-15T20:51:42.940Z,19.96
2022-12-15T20:54:21.557Z,19.95
2022-12-15T20:56:47.877Z,19.93
2022-12-15T20:59:14.346Z,19.93
2022-12-15T21:01:41.413Z,19.93
2022-12-15T21:04:18.202Z,19.93
2022-12-15T21:06:46.665Z,19.94
2022-12-15T21:09:20.416Z,19.95
2022-12-15T21:11:46.810Z,19.95
2022-12-15T21:14:17.106Z,19.95
2022-12-15T21:16:43.460Z,19.94
2022-12-15T21:19:25.693Z,19.94
2022-12-15T21:21:55.037Z,19.94
2022-12-15T21:24:23.085Z,19.92
2022-12-15T21:26:50.535Z,19.92
2022-12-15T21:29:17.720Z,19.92
2022-12-15T21:31:44.263Z,19.90
2022-12-15T21:34:10.620Z,19.91
2022-12-15T21:36:37.268Z,19.90
2022-12-15T21:39:04.268Z,19.90
2022-12-15T21:41:30.621Z,19.89
2022-12-15T21:43:56.937Z,19.87
2022-12-15T21:46:28.841Z,19.88
2022-12-15T21:49:14.557Z,19.88
2022-12-15T21:51:45.209Z,19.85
2022-12-15T21:54:15.757Z,19.86
2022-12-15T21:56:42.078Z,19.86
2022-12-15T21:59:14.836Z,19.87
2022-12-15T22:01:41.206Z,19.88
2022-12-15T22:04:10.622Z,19.90
2022-12-15T22:06:36.944Z,19.90
2022-12-15T22:09:03.267Z,19.90
2022-12-15T22:11:29.721Z,19.90
2022-12-15T22:13:56.387Z,19.91
2022-12-15T22:16:22.800Z,19.88
2022-12-15T22:18:50.484Z,19.88
2022-12-15T22:21:16.809Z,19.86
2022-12-15T22:23:43.140Z,19.83
2022-12-15T22:26:17.268Z,19.85
2022-12-15T22:28:43.604Z,19.86
2022-12-15T22:31:09.997Z,19.86
2022-12-15T22:33:36.375Z,19.85
2022-12-15T22:36:02.824Z,19.86
2022-12-15T22:38:29.387Z,19.87
2022-12-15T22:40:56.540Z,19.87
2022-12-15T22:43:24.890Z,19.86
2022-12-15T22:45:51.576Z,19.86
2022-12-15T22:48:18.244Z,19.85
2022-12-15T22:50:44.576Z,19.85
2022-12-15T22:53:14.353Z,19.82
2022-12-15T22:55:40.669Z,19.81
2022-12-15T22:58:08.195Z,19.81
2022-12-15T23:00:38.194Z,19.80
2022-12-15T23:03:04.671Z,19.79
2022-12-15T23:05:30.986Z,19.80
2022-12-15T23:07:57.445Z,19.81
2022-12-15T23:10:45.573Z,19.81
2022-12-15T23:13:11.916Z,19.81
2022-12-15T23:15:57.235Z,19.82
2022-12-15T23:18:23.613Z,19.80
2022-12-15T23:20:56.533Z,19.79
2022-12-15T23:23:22.933Z,19.79
2022-12-15T23:25:49.269Z,19.77
2022-12-15T23:28:15.697Z,19.77
2022-12-15T23:30:42.200Z,19.77
2022-12-15T23:33:11.510Z,19.77
2022-12-15T23:35:39.471Z,19.77
2022-12-15T23:38:05.799Z,19.76
2022-12-15T23:40:32.113Z,19.74
2022-12-15T23:42:58.480Z,19.75
2022-12-15T23:45:27.893Z,19.78
2022-12-15T23:47:54.228Z,19.78
2022-12-15T23:50:20.555Z,19.78
2022-12-15T23:52:51.299Z,19.77
2022-12-15T23:55:21.004Z,19.77
2022-12-15T23:57:50.052Z,19.77
